createdAt,value
2023-03-21T00:00:24.954Z,65.29
2023-03-21T00:01:27.315Z,65.44
2023-03-21T00:02:29.667Z,65.47
2023-03-21T00:03:34.233Z,65.58
2023-03-21T00:04:50.386Z,65.58
2023-03-21T00:05:54.021Z,65.54
2023-03-21T00:06:56.527Z,65.59
2023-03-21T00:08:01.194Z,65.60
2023-03-21T00:09:04.630Z,65.67
2023-03-21T00:10:15.521Z,65.57
2023-03-21T00:11:18.980Z,65.47
2023-03-21T00:12:22.267Z,65.64
2023-03-21T00:13:26.601Z,65.44
2023-03-21T00:14:31.326Z,65.47
2023-03-21T00:15:48.510Z,65.57
2023-03-21T00:16:57.422Z,65.56
2023-03-21T00:18:04.491Z,65.47
2023-03-21T00:19:07.702Z,65.59
2023-03-21T00:20:15.718Z,65.52
2023-03-21T00:21:40.976Z,65.52
2023-03-21T00:22:44.869Z,65.63
2023-03-21T00:23:47.784Z,65.59
2023-03-21T00:24:49.989Z,65.56
2023-03-21T00:25:52.435Z,65.59
2023-03-21T00:27:02.223Z,65.54
2023-03-21T00:28:12.847Z,65.54
2023-03-21T00:29:17.684Z,65.36
2023-03-21T00:30:24.159Z,65.38
2023-03-21T00:31:26.695Z,65.25
2023-03-21T00:32:28.993Z,65.21
2023-03-21T00:33:32.460Z,65.11
2023-03-21T00:34:43.070Z,65.12
2023-03-21T00:36:01.818Z,65.19
2023-03-21T00:37:07.401Z,65.03
2023-03-21T00:38:10.484Z,64.92
2023-03-21T00:39:17.185Z,64.88
2023-03-21T00:40:27.940Z,64.76
2023-03-21T00:41:43.105Z,64.69
2023-03-21T00:42:45.917Z,64.86
2023-03-21T00:43:48.180Z,64.74
2023-03-21T00:44:50.440Z,64.86
2023-03-21T00:45:52.728Z,65.06
2023-03-21T00:47:06.465Z,64.94
2023-03-21T00:48:10.099Z,65.00
2023-03-21T00:49:12.510Z,65.13
2023-03-21T00:50:16.782Z,65.04
2023-03-21T00:51:26.693Z,65.07
2023-03-21T00:52:40.533Z,64.90
2023-03-21T00:53:43.326Z,65.09
2023-03-21T00:54:46.960Z,65.17
2023-03-21T00:55:50.720Z,65.21
2023-03-21T00:56:53.708Z,65.12
2023-03-21T00:58:02.176Z,65.27
2023-03-21T00:59:05.853Z,65.28
2023-03-21T01:00:10.899Z,65.41
2023-03-21T01:01:13.397Z,65.38
2023-03-21T01:02:23.508Z,65.30
2023-03-21T01:03:26.793Z,65.57
2023-03-21T01:04:29.485Z,65.55
2023-03-21T01:05:53.757Z,65.64
2023-03-21T01:06:56.278Z,65.74
2023-03-21T01:07:58.605Z,65.69
2023-03-21T01:09:01.867Z,65.75
2023-03-21T01:10:04.532Z,65.82
2023-03-21T01:11:09.816Z,66.13
2023-03-21T01:12:12.120Z,66.14
2023-03-21T01:13:17.094Z,66.21
2023-03-21T01:14:23.512Z,66.29
2023-03-21T01:15:26.686Z,66.23
2023-03-21T01:16:29.116Z,66.23
2023-03-21T01:17:32.021Z,66.09
2023-03-21T01:18:38.308Z,65.99
2023-03-21T01:19:51.476Z,66.03
2023-03-21T01:20:57.413Z,66.09
2023-03-21T01:21:59.977Z,66.08
2023-03-21T01:23:02.570Z,66.09
2023-03-21T01:24:05.340Z,66.16
2023-03-21T01:25:21.927Z,65.90
2023-03-21T01:26:25.138Z,65.92
2023-03-21T01:27:27.405Z,65.92
2023-03-21T01:28:30.922Z,66.07
2023-03-21T01:29:33.803Z,66.08
2023-03-21T01:30:41.680Z,65.94
2023-03-21T01:31:44.456Z,65.94
2023-03-21T01:32:47.482Z,66.03
2023-03-21T01:33:50.453Z,65.87
2023-03-21T01:34:53.310Z,65.85
2023-03-21T01:36:10.270Z,65.85
2023-03-21T01:37:17.867Z,65.77
2023-03-21T01:38:26.050Z,65.74
2023-03-21T01:39:28.617Z,65.86
2023-03-21T01:40:31.099Z,65.93
2023-03-21T01:41:44.787Z,66.04
2023-03-21T01:43:02.266Z,65.88
2023-03-21T01:44:05.401Z,65.86
2023-03-21T01:45:52.442Z,65.78
2023-03-21T01:47:12.200Z,65.82
2023-03-21T01:48:22.101Z,65.77
2023-03-21T01:49:36.153Z,66.05
2023-03-21T01:51:05.184Z,65.87
2023-03-21T01:52:33.279Z,65.96
2023-03-21T01:53:41.803Z,65.84
2023-03-21T01:54:47.846Z,65.60
2023-03-21T01:55:50.724Z,65.54
2023-03-21T01:57:16.453Z,65.55
2023-03-21T01:58:19.269Z,65.55
2023-03-21T01:59:54.840Z,65.73
2023-03-21T02:01:23.035Z,65.50
2023-03-21T02:02:31.583Z,65.24
2023-03-21T02:03:52.273Z,65.06
2023-03-21T02:05:48.038Z,64.73
2023-03-21T02:07:03.823Z,64.68
2023-03-21T02:08:15.128Z,64.34
2023-03-21T02:09:22.756Z,64.10
2023-03-21T02:10:25.568Z,64.07
2023-03-21T02:11:32.312Z,63.78
2023-03-21T02:12:34.652Z,63.76
2023-03-21T02:13:38.553Z,63.54
2023-03-21T02:14:43.933Z,63.14
2023-03-21T02:16:12.862Z,63.08
2023-03-21T02:17:33.357Z,62.69
2023-03-21T02:18:39.777Z,62.63
2023-03-21T02:20:07.595Z,62.58
2023-03-21T02:21:48.266Z,62.23
2023-03-21T02:23:27.458Z,62.15
2023-03-21T02:25:01.563Z,61.95
2023-03-21T02:26:28.464Z,61.94
2023-03-21T02:27:46.298Z,61.63
2023-03-21T02:29:30.418Z,61.71
2023-03-21T02:30:39.962Z,61.81
2023-03-21T02:32:28.435Z,61.73
2023-03-21T02:33:47.699Z,61.73
2023-03-21T02:34:54.769Z,61.61
2023-03-21T02:36:17.046Z,61.82
2023-03-21T02:37:36.969Z,61.75
2023-03-21T02:39:23.431Z,61.77
2023-03-21T02:40:33.325Z,61.70
2023-03-21T02:41:57.993Z,61.73
2023-03-21T02:43:24.455Z,61.72
2023-03-21T02:44:41.664Z,61.75
2023-03-21T02:46:18.809Z,61.83
2023-03-21T02:47:40.170Z,61.78
2023-03-21T02:48:53.550Z,61.76
2023-03-21T02:50:02.861Z,61.80
2023-03-21T02:51:07.777Z,61.88
2023-03-21T02:52:31.893Z,61.88
2023-03-21T02:53:43.987Z,61.90
2023-03-21T02:54:49.318Z,61.93
2023-03-21T02:55:57.778Z,61.93
2023-03-21T02:57:04.506Z,62.05
2023-03-21T02:58:13.434Z,61.90
2023-03-21T02:59:27.664Z,62.06
2023-03-21T03:00:33.748Z,62.04
2023-03-21T03:01:37.513Z,62.11
2023-03-21T03:02:41.243Z,62.02
2023-03-21T03:03:44.442Z,61.93
2023-03-21T03:04:47.924Z,62.00
2023-03-21T03:05:57.102Z,62.09
2023-03-21T03:07:28.934Z,62.15
2023-03-21T03:08:56.253Z,62.09
2023-03-21T03:10:04.805Z,62.21
2023-03-21T03:11:21.985Z,62.41
2023-03-21T03:13:01.757Z,62.36
2023-03-21T03:14:44.268Z,62.37
2023-03-21T03:16:11.930Z,62.52
2023-03-21T03:17:26.282Z,62.44
2023-03-21T03:18:49.773Z,62.56
2023-03-21T03:20:21.835Z,62.71
2023-03-21T03:21:33.519Z,62.80
2023-03-21T03:22:54.746Z,62.64
2023-03-21T03:24:01.659Z,62.85
2023-03-21T03:25:21.351Z,62.73
2023-03-21T03:26:38.960Z,62.87
2023-03-21T03:27:44.906Z,62.81
2023-03-21T03:28:52.107Z,62.89
2023-03-21T03:30:00.855Z,62.87
2023-03-21T03:31:09.676Z,62.84
2023-03-21T03:32:26.143Z,62.88
2023-03-21T03:33:29.825Z,62.86
2023-03-21T03:34:39.733Z,62.93
2023-03-21T03:35:48.287Z,63.01
2023-03-21T03:37:00.594Z,63.07
2023-03-21T03:38:07.130Z,63.02
2023-03-21T03:39:12.354Z,63.19
2023-03-21T03:40:25.849Z,63.11
2023-03-21T03:42:12.664Z,63.21
2023-03-21T03:43:25.346Z,63.14
2023-03-21T03:44:28.628Z,63.14
2023-03-21T03:45:47.863Z,63.21
2023-03-21T03:47:26.220Z,63.30
2023-03-21T03:48:37.542Z,63.31
2023-03-21T03:49:54.538Z,63.13
2023-03-21T03:51:06.447Z,63.33
2023-03-21T03:52:55.264Z,63.26
2023-03-21T03:54:04.629Z,63.31
2023-03-21T03:55:11.554Z,63.39
2023-03-21T03:56:17.171Z,63.40
2023-03-21T03:57:20.449Z,63.50
2023-03-21T03:58:36.145Z,63.44
2023-03-21T03:59:46.753Z,63.48
2023-03-21T04:00:56.177Z,63.47
2023-03-21T04:01:58.766Z,63.45
2023-03-21T04:03:01.830Z,63.52
2023-03-21T04:04:12.971Z,63.60
2023-03-21T04:05:21.347Z,63.43
2023-03-21T04:06:24.518Z,63.38
2023-03-21T04:07:27.982Z,63.66
2023-03-21T04:08:34.392Z,63.82
2023-03-21T04:09:44.018Z,63.84
2023-03-21T04:10:48.503Z,63.87
2023-03-21T04:11:51.234Z,64.00
2023-03-21T04:12:54.323Z,64.00
2023-03-21T04:13:56.839Z,64.04
2023-03-21T04:15:09.545Z,64.21
2023-03-21T04:16:14.562Z,64.09
2023-03-21T04:17:18.828Z,64.19
2023-03-21T04:18:23.452Z,64.25
2023-03-21T04:19:25.679Z,64.14
2023-03-21T04:20:43.125Z,64.15
2023-03-21T04:21:46.712Z,64.33
2023-03-21T04:22:49.116Z,64.42
2023-03-21T04:23:51.859Z,64.37
2023-03-21T04:24:54.988Z,64.42
2023-03-21T04:25:57.570Z,64.41
2023-03-21T04:27:11.225Z,64.36
2023-03-21T04:28:17.661Z,64.38
2023-03-21T04:29:29.953Z,64.49
2023-03-21T04:30:35.123Z,64.42
2023-03-21T04:31:46.187Z,64.51
2023-03-21T04:32:56.871Z,64.33
2023-03-21T04:34:03.179Z,64.56
2023-03-21T04:35:08.466Z,64.51
2023-03-21T04:36:26.550Z,64.59
2023-03-21T04:37:34.086Z,64.58
2023-03-21T04:38:37.184Z,64.64
2023-03-21T04:39:40.318Z,64.67
2023-03-21T04:40:42.590Z,64.56
2023-03-21T04:41:46.448Z,64.59
2023-03-21T04:42:48.680Z,64.54
2023-03-21T04:43:52.718Z,64.63
2023-03-21T04:44:56.074Z,64.60
2023-03-21T04:46:00.941Z,64.52
2023-03-21T04:47:03.666Z,64.55
2023-03-21T04:48:06.443Z,64.57
2023-03-21T04:49:11.473Z,64.63
2023-03-21T04:50:14.003Z,64.47
2023-03-21T04:51:16.755Z,64.45
2023-03-21T04:52:19.369Z,64.42
2023-03-21T04:53:22.778Z,64.51
2023-03-21T04:54:25.789Z,64.49
2023-03-21T04:55:29.618Z,64.50
2023-03-21T04:56:36.363Z,64.48
2023-03-21T04:57:38.849Z,64.50
2023-03-21T04:58:42.681Z,64.55
2023-03-21T04:59:45.327Z,64.42
2023-03-21T05:00:47.822Z,64.61
2023-03-21T05:01:50.761Z,64.68
2023-03-21T05:02:52.925Z,64.59
2023-03-21T05:04:04.481Z,64.86
2023-03-21T05:05:11.415Z,64.83
2023-03-21T05:06:15.894Z,64.79
2023-03-21T05:07:18.761Z,64.83
2023-03-21T05:08:21.476Z,64.80
2023-03-21T05:09:23.790Z,64.76
2023-03-21T05:10:26.791Z,64.76
2023-03-21T05:11:33.443Z,64.69
2023-03-21T05:12:35.956Z,64.68
2023-03-21T05:13:38.216Z,64.65
2023-03-21T05:14:40.564Z,64.69
2023-03-21T05:15:43.091Z,64.83
2023-03-21T05:16:53.509Z,64.66
2023-03-21T05:17:58.829Z,64.50
2023-03-21T05:19:05.077Z,64.52
2023-03-21T05:20:16.167Z,64.47
2023-03-21T05:21:19.354Z,64.50
2023-03-21T05:22:26.912Z,64.39
2023-03-21T05:23:31.708Z,64.31
2023-03-21T05:24:34.552Z,64.14
2023-03-21T05:25:38.668Z,64.14
2023-03-21T05:27:02.521Z,64.40
2023-03-21T05:28:08.252Z,64.16
2023-03-21T05:29:12.347Z,64.23
2023-03-21T05:30:17.837Z,64.12
2023-03-21T05:31:22.478Z,64.14
2023-03-21T05:32:29.355Z,64.06
2023-03-21T05:33:33.030Z,64.16
2023-03-21T05:34:35.727Z,64.22
2023-03-21T05:35:38.727Z,64.13
2023-03-21T05:36:43.988Z,64.30
2023-03-21T05:37:47.213Z,64.14
2023-03-21T05:38:51.451Z,64.19
2023-03-21T05:39:54.919Z,64.19
2023-03-21T05:41:06.000Z,64.23
2023-03-21T05:42:08.438Z,64.18
2023-03-21T05:43:10.760Z,64.10
2023-03-21T05:44:13.614Z,64.00
2023-03-21T05:45:16.760Z,64.08
2023-03-21T05:46:19.142Z,63.95
2023-03-21T05:47:21.394Z,64.02
2023-03-21T05:48:23.735Z,64.06
2023-03-21T05:49:49.963Z,64.06
2023-03-21T05:50:53.901Z,64.03
2023-03-21T05:51:57.691Z,63.96
2023-03-21T05:53:01.321Z,63.87
2023-03-21T05:54:03.931Z,63.86
2023-03-21T05:55:07.117Z,63.99
2023-03-21T05:56:10.001Z,63.87
2023-03-21T05:57:39.711Z,63.82
2023-03-21T05:58:44.585Z,63.90
2023-03-21T05:59:47.438Z,63.81
2023-03-21T06:00:49.950Z,63.83
2023-03-21T06:02:00.190Z,63.69
2023-03-21T06:03:02.436Z,63.81
2023-03-21T06:04:24.707Z,63.80
2023-03-21T06:05:27.249Z,63.90
2023-03-21T06:06:31.130Z,63.98
2023-03-21T06:07:38.692Z,63.97
2023-03-21T06:08:41.185Z,63.93
2023-03-21T06:09:43.547Z,63.98
2023-03-21T06:10:45.905Z,64.03
2023-03-21T06:11:52.393Z,64.04
2023-03-21T06:13:13.797Z,64.10
2023-03-21T06:14:16.823Z,64.27
2023-03-21T06:15:20.548Z,64.52
2023-03-21T06:16:28.990Z,64.48
2023-03-21T06:17:32.991Z,64.51
2023-03-21T06:18:39.517Z,64.63
2023-03-21T06:20:03.935Z,64.47
2023-03-21T06:21:11.988Z,64.33
2023-03-21T06:22:19.255Z,64.18
2023-03-21T06:23:21.528Z,64.07
2023-03-21T06:24:23.973Z,64.07
2023-03-21T06:25:26.186Z,64.07
2023-03-21T06:26:28.419Z,63.84
2023-03-21T06:27:32.038Z,63.77
2023-03-21T06:28:34.779Z,63.74
2023-03-21T06:29:37.026Z,63.49
2023-03-21T06:30:40.614Z,63.66
2023-03-21T06:31:50.977Z,63.62
2023-03-21T06:32:55.168Z,63.45
2023-03-21T06:33:57.538Z,63.35
2023-03-21T06:34:59.801Z,63.44
2023-03-21T06:36:03.584Z,63.49
2023-03-21T06:37:06.725Z,63.24
2023-03-21T06:38:10.979Z,63.19
2023-03-21T06:39:16.112Z,63.05
2023-03-21T06:40:20.636Z,62.99
2023-03-21T06:41:23.399Z,62.94
2023-03-21T06:42:36.468Z,62.88
2023-03-21T06:43:45.819Z,62.73
2023-03-21T06:44:48.035Z,62.94
2023-03-21T06:45:51.632Z,62.91
2023-03-21T06:46:54.311Z,62.88
2023-03-21T06:47:57.305Z,62.90
2023-03-21T06:49:26.142Z,62.79
2023-03-21T06:50:29.924Z,62.92
2023-03-21T06:51:32.374Z,62.89
2023-03-21T06:52:42.518Z,62.90
2023-03-21T06:53:45.071Z,62.97
2023-03-21T06:55:01.051Z,63.01
2023-03-21T06:56:03.447Z,62.94
2023-03-21T06:57:07.002Z,62.88
2023-03-21T06:58:10.606Z,62.71
2023-03-21T06:59:13.366Z,62.71
2023-03-21T07:00:34.454Z,62.89
2023-03-21T07:01:38.459Z,62.53
2023-03-21T07:02:42.792Z,62.49
2023-03-21T07:03:49.744Z,62.58
2023-03-21T07:04:54.468Z,62.57
2023-03-21T07:05:59.282Z,62.34
2023-03-21T07:07:01.693Z,62.50
2023-03-21T07:08:04.108Z,62.41
2023-03-21T07:09:10.188Z,62.43
2023-03-21T07:10:13.385Z,62.45
2023-03-21T07:11:39.609Z,62.42
2023-03-21T07:12:42.028Z,62.32
2023-03-21T07:14:05.391Z,62.26
2023-03-21T07:15:09.071Z,62.14
2023-03-21T07:16:12.232Z,62.26
2023-03-21T07:17:14.455Z,62.19
2023-03-21T07:18:17.492Z,62.03
2023-03-21T07:19:19.959Z,62.02
2023-03-21T07:20:22.756Z,62.03
2023-03-21T07:21:25.188Z,62.10
2023-03-21T07:22:29.025Z,62.06
2023-03-21T07:23:31.346Z,62.05
2023-03-21T07:24:36.088Z,62.14
2023-03-21T07:25:39.768Z,62.07
2023-03-21T07:26:42.462Z,62.01
2023-03-21T07:27:44.688Z,62.08
2023-03-21T07:28:46.897Z,62.04
2023-03-21T07:29:50.596Z,62.00
2023-03-21T07:30:56.073Z,62.00
2023-03-21T07:31:58.529Z,61.95
2023-03-21T07:33:01.160Z,61.94
2023-03-21T07:34:03.780Z,61.99
2023-03-21T07:35:09.116Z,62.12
2023-03-21T07:36:16.064Z,62.25
2023-03-21T07:37:18.467Z,62.07
2023-03-21T07:38:21.457Z,62.10
2023-03-21T07:39:24.800Z,62.02
2023-03-21T07:40:27.774Z,62.08
2023-03-21T07:41:31.166Z,61.94
2023-03-21T07:42:47.318Z,62.03
2023-03-21T07:43:49.524Z,61.88
2023-03-21T07:44:52.854Z,62.17
2023-03-21T07:45:59.592Z,61.95
2023-03-21T07:47:02.340Z,61.91
2023-03-21T07:48:04.693Z,61.86
2023-03-21T07:49:09.436Z,61.73
2023-03-21T07:50:11.866Z,61.75
2023-03-21T07:51:15.051Z,61.58
2023-03-21T07:52:18.343Z,61.74
2023-03-21T07:53:22.035Z,61.69
2023-03-21T07:54:24.637Z,61.53
2023-03-21T07:55:27.366Z,61.51
2023-03-21T07:56:29.651Z,61.50
2023-03-21T07:57:32.078Z,61.45
2023-03-21T07:58:36.572Z,61.14
2023-03-21T07:59:38.875Z,61.41
2023-03-21T08:00:43.416Z,61.29
2023-03-21T08:01:45.649Z,61.26
2023-03-21T08:02:49.073Z,60.99
2023-03-21T08:03:53.880Z,60.99
2023-03-21T08:04:56.448Z,60.39
2023-03-21T08:06:01.772Z,60.40
2023-03-21T08:07:04.128Z,60.12
2023-03-21T08:08:06.767Z,60.15
2023-03-21T08:09:11.076Z,59.89
2023-03-21T08:10:13.370Z,60.05
2023-03-21T08:11:21.632Z,59.98
2023-03-21T08:12:23.856Z,59.95
2023-03-21T08:13:26.216Z,59.92
2023-03-21T08:14:28.884Z,59.99
2023-03-21T08:15:31.721Z,59.74
2023-03-21T08:16:34.003Z,59.70
2023-03-21T08:17:38.292Z,59.71
2023-03-21T08:18:40.652Z,59.68
2023-03-21T08:19:42.938Z,59.56
2023-03-21T08:20:45.364Z,59.51
2023-03-21T08:21:49.573Z,59.23
2023-03-21T08:22:52.147Z,59.14
2023-03-21T08:23:54.877Z,58.95
2023-03-21T08:24:57.161Z,58.80
2023-03-21T08:25:59.434Z,58.73
2023-03-21T08:27:02.402Z,58.53
2023-03-21T08:28:05.883Z,58.61
2023-03-21T08:29:13.061Z,58.61
2023-03-21T08:30:18.698Z,58.38
2023-03-21T08:31:22.071Z,58.15
2023-03-21T08:32:29.479Z,58.14
2023-03-21T08:33:32.872Z,57.96
2023-03-21T08:34:35.726Z,57.84
2023-03-21T08:35:40.924Z,57.86
2023-03-21T08:36:44.040Z,57.78
2023-03-21T08:37:46.684Z,57.87
2023-03-21T08:38:55.326Z,58.02
2023-03-21T08:39:59.632Z,57.91
2023-03-21T08:41:03.110Z,57.82
2023-03-21T08:42:06.186Z,57.77
2023-03-21T08:43:08.541Z,58.01
2023-03-21T08:44:11.249Z,57.98
2023-03-21T08:45:15.425Z,57.63
2023-03-21T08:46:18.927Z,57.62
2023-03-21T08:47:21.315Z,57.55
2023-03-21T08:48:23.761Z,57.58
2023-03-21T08:49:29.552Z,57.65
2023-03-21T08:50:32.030Z,57.73
2023-03-21T08:51:37.789Z,57.59
2023-03-21T08:52:42.613Z,57.53
2023-03-21T08:53:45.158Z,57.26
2023-03-21T08:54:48.593Z,57.22
2023-03-21T08:55:51.644Z,57.03
2023-03-21T08:56:54.004Z,57.29
2023-03-21T08:57:58.676Z,57.24
2023-03-21T08:59:03.381Z,57.13
2023-03-21T09:00:13.004Z,57.01
2023-03-21T09:01:15.954Z,56.87
2023-03-21T09:02:21.168Z,56.96
2023-03-21T09:03:24.761Z,56.73
2023-03-21T09:04:27.812Z,56.76
2023-03-21T09:05:30.132Z,56.56
2023-03-21T09:06:33.648Z,56.57
2023-03-21T09:07:36.540Z,56.62
2023-03-21T09:08:39.433Z,56.77
2023-03-21T09:09:41.912Z,56.81
2023-03-21T09:10:44.149Z,56.86
2023-03-21T09:11:46.422Z,56.63
2023-03-21T09:12:52.060Z,56.52
2023-03-21T09:13:54.353Z,56.38
2023-03-21T09:14:58.232Z,56.38
2023-03-21T09:16:01.731Z,56.55
2023-03-21T09:17:04.381Z,56.33
2023-03-21T09:18:16.384Z,56.53
2023-03-21T09:19:19.062Z,56.31
2023-03-21T09:20:33.181Z,56.35
2023-03-21T09:21:37.216Z,56.49
2023-03-21T09:22:42.777Z,56.34
2023-03-21T09:23:45.483Z,56.23
2023-03-21T09:24:49.808Z,56.10
2023-03-21T09:25:52.181Z,56.00
2023-03-21T09:26:54.660Z,55.81
2023-03-21T09:27:58.307Z,55.71
2023-03-21T09:29:01.116Z,55.73
2023-03-21T09:30:06.211Z,55.78
2023-03-21T09:31:11.825Z,55.89
2023-03-21T09:32:16.408Z,55.77
2023-03-21T09:33:19.484Z,55.51
2023-03-21T09:34:23.158Z,55.52
2023-03-21T09:35:27.128Z,55.60
2023-03-21T09:36:32.075Z,55.46
2023-03-21T09:37:34.409Z,55.69
2023-03-21T09:38:37.087Z,55.73
2023-03-21T09:39:44.907Z,55.55
2023-03-21T09:40:50.002Z,55.72
2023-03-21T09:42:17.992Z,55.82
2023-03-21T09:43:51.592Z,55.73
2023-03-21T09:45:35.458Z,55.92
2023-03-21T09:46:52.108Z,55.98
2023-03-21T09:47:54.697Z,56.07
2023-03-21T09:49:01.731Z,56.02
2023-03-21T09:50:20.693Z,55.84
2023-03-21T09:51:27.277Z,55.71
2023-03-21T09:52:45.731Z,55.72
2023-03-21T09:53:51.969Z,56.02
2023-03-21T09:54:55.812Z,56.25
2023-03-21T09:56:00.028Z,56.15
2023-03-21T09:57:15.633Z,55.88
2023-03-21T09:58:29.665Z,55.90
2023-03-21T09:59:38.330Z,55.94
2023-03-21T10:00:46.017Z,55.73
2023-03-21T10:01:49.542Z,55.65
2023-03-21T10:02:57.532Z,55.42
2023-03-21T10:04:06.606Z,55.39
2023-03-21T10:05:24.619Z,55.71
2023-03-21T10:06:30.970Z,55.48
2023-03-21T10:07:38.925Z,55.26
2023-03-21T10:08:45.274Z,55.21
2023-03-21T10:09:49.084Z,55.24
2023-03-21T10:10:57.060Z,55.32
2023-03-21T10:12:04.325Z,55.03
2023-03-21T10:13:15.478Z,55.02
2023-03-21T10:14:42.406Z,55.33
2023-03-21T10:15:47.872Z,54.99
2023-03-21T10:16:56.801Z,54.84
2023-03-21T10:18:05.307Z,54.45
2023-03-21T10:19:14.527Z,54.47
2023-03-21T10:20:21.541Z,54.08
2023-03-21T10:21:56.649Z,53.99
2023-03-21T10:22:52.685Z,54.07
2023-03-21T10:23:57.495Z,53.82
2023-03-21T10:24:59.738Z,53.74
2023-03-21T10:26:05.475Z,53.71
2023-03-21T10:27:07.999Z,53.54
2023-03-21T10:28:21.412Z,53.47
2023-03-21T10:29:32.315Z,53.60
2023-03-21T10:30:42.359Z,53.46
2023-03-21T10:31:46.581Z,53.36
2023-03-21T10:32:49.686Z,53.11
2023-03-21T10:33:55.798Z,53.37
2023-03-21T10:34:58.966Z,53.12
2023-03-21T10:36:06.932Z,52.97
2023-03-21T10:37:11.288Z,53.23
2023-03-21T10:38:18.259Z,52.64
2023-03-21T10:39:28.803Z,52.71
2023-03-21T10:40:33.022Z,52.79
2023-03-21T10:41:36.185Z,52.75
2023-03-21T10:42:38.783Z,52.98
2023-03-21T10:43:41.854Z,53.14
2023-03-21T10:44:48.099Z,52.71
2023-03-21T10:45:50.620Z,52.80
2023-03-21T10:47:08.138Z,52.95
2023-03-21T10:48:11.093Z,52.51
2023-03-21T10:49:16.187Z,52.48
2023-03-21T10:50:25.218Z,52.36
2023-03-21T10:51:33.439Z,52.22
2023-03-21T10:52:41.803Z,51.67
2023-03-21T10:53:55.985Z,51.55
2023-03-21T10:55:09.005Z,51.89
2023-03-21T10:56:12.257Z,51.71
2023-03-21T10:57:22.688Z,51.75
2023-03-21T10:58:33.485Z,51.68
2023-03-21T10:59:43.091Z,51.59
2023-03-21T11:00:49.542Z,51.78
2023-03-21T11:01:55.744Z,51.64
2023-03-21T11:02:58.725Z,51.49
2023-03-21T11:04:06.785Z,51.60
2023-03-21T11:05:22.987Z,51.65
2023-03-21T11:06:34.595Z,51.64
2023-03-21T11:07:37.804Z,51.60
2023-03-21T11:08:47.656Z,51.51
2023-03-21T11:09:57.885Z,51.18
2023-03-21T11:11:08.666Z,51.56
2023-03-21T11:12:33.793Z,51.48
2023-03-21T11:13:43.683Z,51.23
2023-03-21T11:14:49.436Z,51.45
2023-03-21T11:16:03.819Z,51.36
2023-03-21T11:17:27.144Z,51.64
2023-03-21T11:18:33.385Z,50.97
2023-03-21T11:19:36.576Z,50.84
2023-03-21T11:20:45.059Z,50.78
2023-03-21T11:21:47.493Z,50.98
2023-03-21T11:22:54.496Z,50.62
2023-03-21T11:23:57.511Z,50.65
2023-03-21T11:25:02.004Z,50.31
2023-03-21T11:26:11.799Z,50.24
2023-03-21T11:27:14.080Z,50.33
2023-03-21T11:28:25.653Z,49.99
2023-03-21T11:29:42.767Z,50.09
2023-03-21T11:31:03.763Z,50.16
2023-03-21T11:32:27.179Z,50.19
2023-03-21T11:33:40.722Z,50.08
2023-03-21T11:34:49.969Z,49.88
2023-03-21T11:36:06.394Z,49.77
2023-03-21T11:37:19.122Z,49.84
2023-03-21T11:38:32.088Z,49.59
2023-03-21T11:39:43.855Z,49.82
2023-03-21T11:42:00.155Z,49.36
2023-03-21T11:43:24.762Z,49.48
2023-03-21T11:44:43.327Z,49.08
2023-03-21T11:46:06.136Z,49.24
2023-03-21T11:47:10.426Z,49.19
2023-03-21T11:48:14.871Z,48.94
2023-03-21T11:49:17.809Z,49.11
2023-03-21T11:50:40.142Z,49.37
2023-03-21T11:51:59.719Z,48.99
2023-03-21T11:53:20.255Z,49.05
2023-03-21T11:54:36.068Z,48.91
2023-03-21T11:56:06.074Z,49.17
2023-03-21T11:57:43.989Z,49.27
2023-03-21T11:58:57.299Z,49.17
2023-03-21T12:00:14.644Z,48.81
2023-03-21T12:01:33.258Z,49.11
2023-03-21T12:03:14.830Z,49.14
2023-03-21T12:04:51.420Z,49.71
2023-03-21T12:05:56.831Z,49.53
2023-03-21T12:07:09.608Z,49.25
2023-03-21T12:08:38.069Z,49.00
2023-03-21T12:09:45.420Z,48.75
2023-03-21T12:11:00.554Z,48.79
2023-03-21T12:12:02.707Z,48.48
2023-03-21T12:13:13.989Z,48.64
2023-03-21T12:14:43.697Z,48.90
2023-03-21T12:16:06.667Z,48.92
2023-03-21T12:17:26.311Z,48.99
2023-03-21T12:18:46.468Z,48.36
2023-03-21T12:19:49.560Z,48.19
2023-03-21T12:21:15.892Z,48.27
2023-03-21T12:22:33.057Z,48.34
2023-03-21T12:23:53.082Z,48.23
2023-03-21T12:25:06.486Z,47.99
2023-03-21T12:26:27.974Z,47.87
2023-03-21T12:27:52.878Z,48.26
2023-03-21T12:29:27.173Z,48.35
2023-03-21T12:31:11.498Z,48.25
2023-03-21T12:32:42.909Z,47.89
2023-03-21T12:33:45.058Z,48.46
2023-03-21T12:34:53.404Z,48.40
2023-03-21T12:36:40.562Z,48.49
2023-03-21T12:38:26.228Z,48.13
2023-03-21T12:39:33.848Z,48.21
2023-03-21T12:40:48.247Z,48.26
2023-03-21T12:42:06.824Z,48.05
2023-03-21T12:43:14.829Z,48.08
2023-03-21T12:44:21.298Z,48.18
2023-03-21T12:45:45.677Z,48.18
2023-03-21T12:47:07.016Z,48.18
2023-03-21T12:48:16.480Z,47.86
2023-03-21T12:49:29.891Z,48.09
2023-03-21T12:50:39.029Z,47.71
2023-03-21T12:51:48.674Z,48.02
2023-03-21T12:52:56.201Z,47.66
2023-03-21T12:54:13.264Z,47.40
2023-03-21T12:55:35.585Z,47.95
2023-03-21T12:57:12.968Z,47.83
2023-03-21T12:58:20.537Z,47.26
2023-03-21T12:59:32.008Z,47.55
2023-03-21T13:00:45.506Z,47.24
2023-03-21T13:01:51.902Z,47.13
2023-03-21T13:03:19.613Z,46.81
2023-03-21T13:05:00.846Z,46.85
2023-03-21T13:06:06.508Z,46.62
2023-03-21T13:07:14.865Z,46.86
2023-03-21T13:08:32.014Z,46.66
2023-03-21T13:09:40.237Z,46.66
2023-03-21T13:10:45.772Z,46.68
2023-03-21T13:11:51.708Z,46.59
2023-03-21T13:13:14.088Z,47.15
2023-03-21T13:14:27.907Z,47.07
2023-03-21T13:15:50.965Z,46.80
2023-03-21T13:17:02.590Z,46.98
2023-03-21T13:18:19.476Z,46.81
2023-03-21T13:19:48.993Z,47.37
2023-03-21T13:20:57.775Z,47.09
2023-03-21T13:22:07.933Z,47.23
2023-03-21T13:23:13.807Z,47.15
2023-03-21T13:24:22.164Z,47.03
2023-03-21T13:25:25.749Z,46.52
2023-03-21T13:26:40.908Z,46.63
2023-03-21T13:27:47.365Z,47.00
2023-03-21T13:28:50.854Z,46.75
2023-03-21T13:30:00.815Z,46.90
2023-03-21T13:31:15.553Z,46.96
2023-03-21T13:32:31.791Z,46.61
2023-03-21T13:33:35.008Z,46.94
2023-03-21T13:34:39.142Z,46.64
2023-03-21T13:35:44.673Z,46.75
2023-03-21T13:36:49.835Z,46.86
2023-03-21T13:38:02.237Z,46.80
2023-03-21T13:39:07.036Z,46.42
2023-03-21T13:40:38.072Z,46.58
2023-03-21T13:41:44.024Z,46.36
2023-03-21T13:42:52.411Z,46.58
2023-03-21T13:44:06.044Z,46.32
2023-03-21T13:45:11.648Z,46.22
2023-03-21T13:46:13.869Z,46.29
2023-03-21T13:47:44.259Z,46.35
2023-03-21T13:48:58.490Z,46.29
2023-03-21T13:50:25.894Z,46.46
2023-03-21T13:51:37.232Z,46.43
2023-03-21T13:52:39.866Z,46.34
2023-03-21T13:53:45.800Z,46.23
2023-03-21T13:54:56.348Z,45.79
2023-03-21T13:56:09.449Z,45.73
2023-03-21T13:57:33.367Z,45.92
2023-03-21T13:58:44.580Z,45.53
2023-03-21T13:59:49.210Z,45.47
2023-03-21T14:01:21.283Z,45.82
2023-03-21T14:02:23.506Z,45.55
2023-03-21T14:03:30.803Z,45.58
2023-03-21T14:04:42.561Z,45.69
2023-03-21T14:05:50.913Z,45.87
2023-03-21T14:07:00.410Z,45.81
2023-03-21T14:08:15.684Z,45.41
2023-03-21T14:09:33.112Z,45.62
2023-03-21T14:10:42.499Z,45.56
2023-03-21T14:11:47.340Z,45.73
2023-03-21T14:12:50.122Z,45.73
2023-03-21T14:13:54.829Z,45.54
2023-03-21T14:15:16.279Z,45.74
2023-03-21T14:16:21.059Z,45.46
2023-03-21T14:17:23.279Z,45.52
2023-03-21T14:18:51.775Z,45.46
2023-03-21T14:19:55.620Z,45.70
2023-03-21T14:20:59.691Z,45.69
2023-03-21T14:22:03.637Z,45.35
2023-03-21T14:23:09.131Z,45.07
2023-03-21T14:24:18.491Z,45.04
2023-03-21T14:25:37.053Z,45.16
2023-03-21T14:26:49.540Z,45.34
2023-03-21T14:27:55.981Z,45.44
2023-03-21T14:28:58.645Z,45.44
2023-03-21T14:30:02.289Z,45.56
2023-03-21T14:31:05.329Z,45.47
2023-03-21T14:32:22.076Z,45.07
2023-03-21T14:33:29.219Z,45.32
2023-03-21T14:34:35.905Z,45.19
2023-03-21T14:35:41.915Z,45.48
2023-03-21T14:36:51.666Z,45.24
2023-03-21T14:38:05.662Z,45.33
2023-03-21T14:39:17.351Z,44.95
2023-03-21T14:40:25.832Z,44.97
2023-03-21T14:41:29.950Z,44.74
2023-03-21T14:42:35.720Z,44.94
2023-03-21T14:43:37.980Z,45.05
2023-03-21T14:44:58.153Z,44.67
2023-03-21T14:46:01.668Z,44.84
2023-03-21T14:47:07.296Z,44.84
2023-03-21T14:48:14.901Z,45.21
2023-03-21T14:49:32.000Z,45.45
2023-03-21T14:50:37.109Z,45.31
2023-03-21T14:51:41.982Z,45.10
2023-03-21T14:52:44.572Z,44.89